createdAt,value
2022-09-05T00:01:30.128Z,1.02
2022-09-05T00:04:25.107Z,0.70
2022-09-05T00:07:01.896Z,0.80
2022-09-05T00:09:52.733Z,1.20
2022-09-05T00:12:21.029Z,1.17
2022-09-05T00:15:17.834Z,0.90
2022-09-05T00:19:28.444Z,1.00
2022-09-05T00:24:20.904Z,0.90
2022-09-05T00:24:36.508Z,0.80
2022-09-05T00:26:54.169Z,1.00
2022-09-05T00:30:52.320Z,0.80
2022-09-05T00:32:36.340Z,1.30
2022-09-05T00:35:25.920Z,0.98
2022-09-05T00:37:56.096Z,1.13
2022-09-05T00:40:31.233Z,0.93
2022-09-05T00:43:03.257Z,1.10
2022-09-05T00:45:38.737Z,0.85
2022-09-05T00:48:19.587Z,1.05
2022-09-05T00:51:10.212Z,1.00
2022-09-05T00:53:45.661Z,1.02
2022-09-05T00:56:31.735Z,0.90
2022-09-05T00:59:27.956Z,0.88
2022-09-05T01:02:05.223Z,0.80
2022-09-05T01:04:43.958Z,0.82
2022-09-05T01:07:25.718Z,1.00
2022-09-05T01:10:05.321Z,0.90
2022-09-05T01:12:52.670Z,0.75
2022-09-05T01:15:32.775Z,1.00
2022-09-05T01:18:28.697Z,0.85
2022-09-05T01:21:22.866Z,0.80
2022-09-05T01:24:27.804Z,0.80
2022-09-05T01:29:13.189Z,0.80
2022-09-05T01:30:37.068Z,1.00
2022-09-05T01:33:17.962Z,1.00
2022-09-05T01:36:07.747Z,1.10
2022-09-05T01:39:09.656Z,0.80
2022-09-05T01:41:39.395Z,0.90
2022-09-05T01:44:37.857Z,1.10
2022-09-05T01:47:29.298Z,0.90
2022-09-05T01:50:08.192Z,1.00
2022-09-05T01:53:04.866Z,0.85
2022-09-05T01:56:05.196Z,0.77
2022-09-05T01:58:57.526Z,0.77
2022-09-05T02:01:34.824Z,1.05
2022-09-05T02:04:31.125Z,0.93
2022-09-05T02:07:15.277Z,0.93
2022-09-05T02:10:37.717Z,0.88
2022-09-05T02:13:20.732Z,0.98
2022-09-05T02:15:59.692Z,0.90
2022-09-05T02:18:44.483Z,0.85
2022-09-05T02:21:25.508Z,0.90
2022-09-05T02:24:04.189Z,0.80
2022-09-05T02:26:37.461Z,0.80
2022-09-05T02:29:28.976Z,0.90
2022-09-05T02:32:02.184Z,0.82
2022-09-05T02:34:40.550Z,0.70
2022-09-05T02:37:22.818Z,0.82
2022-09-05T02:45:02.723Z,0.80
2022-09-05T02:45:11.155Z,0.88
2022-09-05T02:46:05.073Z,0.75
2022-09-05T02:48:47.269Z,0.70
2022-09-05T02:57:28.482Z,0.88
2022-09-05T02:57:40.616Z,0.60
2022-09-05T02:57:42.127Z,0.90
2022-09-05T03:00:13.265Z,0.85
2022-09-05T03:03:06.055Z,0.73
2022-09-05T03:05:39.180Z,0.70
2022-09-05T03:08:20.135Z,0.82
2022-09-05T03:11:05.144Z,1.10
2022-09-05T03:14:01.722Z,0.70
2022-09-05T03:17:01.251Z,0.70
2022-09-05T03:20:04.299Z,0.60
2022-09-05T03:23:05.721Z,0.60
2022-09-05T03:26:24.442Z,0.80
2022-09-05T03:29:16.680Z,0.50
2022-09-05T03:32:10.563Z,0.60
2022-09-05T03:35:08.741Z,0.60
2022-09-05T03:38:18.126Z,0.80
2022-09-05T03:41:00.173Z,0.75
2022-09-05T03:43:57.950Z,0.57
2022-09-05T03:46:38.699Z,0.70
2022-09-05T03:53:17.995Z,0.60
2022-09-05T03:57:06.640Z,0.70
2022-09-05T03:57:23.882Z,0.60
2022-09-05T03:58:57.142Z,0.52
2022-09-05T04:03:17.906Z,0.68
2022-09-05T04:08:13.584Z,0.80
2022-09-05T04:08:18.262Z,0.75
2022-09-05T04:10:27.338Z,0.80
2022-09-05T04:13:02.693Z,0.70
2022-09-05T04:15:39.706Z,0.77
2022-09-05T04:18:32.737Z,0.80
2022-09-05T04:21:07.750Z,0.55
2022-09-05T04:23:47.587Z,0.52
2022-09-05T04:26:30.220Z,0.70
2022-09-05T04:29:15.120Z,0.80
2022-09-05T04:32:18.204Z,0.98
2022-09-05T04:34:57.212Z,0.68
2022-09-05T04:37:48.475Z,0.57
2022-09-05T04:40:40.760Z,0.85
2022-09-05T04:43:14.316Z,0.70
2022-09-05T04:45:47.171Z,0.70
2022-09-05T04:48:22.314Z,0.77
2022-09-05T04:51:05.125Z,0.55
2022-09-05T04:54:20.143Z,0.55
2022-09-05T04:56:56.358Z,0.70
2022-09-05T05:03:56.517Z,0.82
2022-09-05T05:05:59.627Z,0.57
2022-09-05T05:06:14.277Z,1.00
2022-09-05T05:08:29.123Z,0.73
2022-09-05T05:17:54.206Z,0.55
2022-09-05T05:17:57.091Z,0.70
2022-09-05T05:18:12.507Z,0.80
2022-09-05T05:20:40.445Z,0.90
2022-09-05T05:22:55.972Z,1.00
2022-09-05T05:25:24.191Z,1.00
2022-09-05T05:28:10.265Z,0.80
2022-09-05T05:30:51.057Z,0.93
2022-09-05T05:33:29.508Z,0.90
2022-09-05T05:36:01.485Z,0.90
2022-09-05T05:38:39.757Z,0.82
2022-09-05T05:41:18.560Z,0.88
2022-09-05T05:43:48.431Z,1.00
2022-09-05T05:46:28.870Z,0.93
2022-09-05T05:49:09.585Z,0.80
2022-09-05T05:52:02.116Z,0.70
2022-09-05T05:54:40.664Z,0.68
2022-09-05T05:57:55.070Z,0.77
2022-09-05T06:00:32.565Z,0.80
2022-09-05T06:03:46.340Z,0.98
2022-09-05T06:06:42.888Z,0.80
2022-09-05T06:14:52.371Z,1.00
2022-09-05T06:14:55.256Z,1.00
2022-09-05T06:17:01.933Z,0.70
2022-09-05T06:22:07.380Z,0.80
2022-09-05T06:23:48.055Z,0.77
2022-09-05T06:26:49.375Z,1.08
2022-09-05T06:29:37.967Z,0.70
2022-09-05T06:32:27.637Z,0.63
2022-09-05T06:35:24.029Z,0.70
2022-09-05T06:38:07.788Z,0.75
2022-09-05T06:40:42.436Z,0.80
2022-09-05T06:43:28.333Z,0.60
2022-09-05T06:46:32.222Z,0.90
2022-09-05T06:49:32.366Z,0.77
2022-09-05T06:52:36.342Z,0.70
2022-09-05T06:55:28.493Z,0.80
2022-09-05T06:58:42.508Z,0.73
2022-09-05T07:01:12.242Z,0.63
2022-09-05T07:03:59.716Z,0.50
2022-09-05T07:07:06.438Z,0.82
2022-09-05T07:09:52.060Z,0.85
2022-09-05T07:12:27.843Z,0.98
2022-09-05T07:15:10.625Z,0.95
2022-09-05T07:18:09.653Z,1.00
2022-09-05T07:21:16.016Z,0.88
2022-09-05T07:24:06.278Z,0.90
2022-09-05T07:26:54.184Z,0.80
2022-09-05T07:29:32.223Z,0.90
2022-09-05T07:32:05.744Z,1.15
2022-09-05T07:34:35.547Z,0.70
2022-09-05T07:37:14.999Z,0.90
2022-09-05T07:39:50.894Z,0.85
2022-09-05T07:42:24.286Z,0.68
2022-09-05T07:44:56.698Z,0.50
2022-09-05T07:47:30.308Z,0.82
2022-09-05T07:52:39.380Z,0.65
2022-09-05T07:56:51.385Z,0.50
2022-09-05T07:56:51.933Z,0.47
2022-09-05T07:58:41.813Z,0.50
2022-09-05T08:01:12.666Z,0.70
2022-09-05T08:03:43.991Z,0.68
2022-09-05T08:06:50.754Z,0.70
2022-09-05T08:10:05.390Z,0.50
2022-09-05T08:12:09.898Z,0.55
2022-09-05T08:14:46.124Z,0.50
2022-09-05T08:17:18.868Z,0.43
2022-09-05T08:20:10.552Z,0.60
2022-09-05T08:22:52.336Z,0.40
2022-09-05T08:25:27.568Z,0.50
2022-09-05T08:28:20.810Z,0.60
2022-09-05T08:30:58.129Z,0.50
2022-09-05T08:33:33.166Z,0.63
2022-09-05T08:36:09.189Z,0.60
2022-09-05T08:38:41.225Z,1.00
2022-09-05T08:41:18.365Z,1.08
2022-09-05T08:46:43.401Z,0.70
2022-09-05T08:46:54.458Z,0.63
2022-09-05T08:49:54.339Z,0.60
2022-09-05T08:52:34.270Z,0.60
2022-09-05T08:55:14.750Z,0.60
2022-09-05T08:58:02.552Z,0.73
2022-09-05T09:00:36.159Z,0.85
2022-09-05T09:03:15.366Z,0.40
2022-09-05T09:06:15.999Z,0.60
2022-09-05T09:09:10.357Z,0.50
2022-09-05T09:11:44.120Z,0.50
2022-09-05T09:14:38.260Z,0.40
2022-09-05T09:17:24.420Z,0.40
2022-09-05T09:20:09.907Z,0.60
2022-09-05T09:22:43.036Z,0.60
2022-09-05T09:25:16.776Z,0.52
2022-09-05T09:28:47.351Z,0.43
2022-09-05T09:31:00.490Z,0.40
2022-09-05T09:33:39.566Z,0.50
2022-09-05T09:36:23.104Z,0.40
2022-09-05T09:39:14.451Z,0.47
2022-09-05T09:42:32.557Z,0.70
2022-09-05T09:45:33.336Z,0.70
2022-09-05T09:48:27.377Z,0.52
2022-09-05T09:51:12.281Z,0.70
2022-09-05T09:54:01.112Z,0.60
2022-09-05T09:57:02.554Z,0.60
2022-09-05T09:59:54.403Z,0.70
2022-09-05T10:06:57.732Z,0.60
2022-09-05T10:10:37.915Z,0.60
2022-09-05T10:10:50.600Z,0.60
2022-09-05T10:11:54.150Z,0.52
2022-09-05T10:15:01.921Z,0.50
2022-09-05T10:18:15.211Z,0.38
2022-09-05T10:21:16.225Z,0.40
2022-09-05T10:24:26.828Z,0.30
2022-09-05T10:27:20.810Z,0.40
2022-09-05T10:30:06.588Z,0.40
2022-09-05T10:35:17.609Z,0.63
2022-09-05T10:35:37.255Z,0.40
2022-09-05T10:38:12.736Z,0.50
2022-09-05T10:41:20.127Z,0.50
2022-09-05T10:43:36.252Z,0.50
2022-09-05T10:46:46.627Z,0.60
2022-09-05T10:49:11.925Z,0.50
2022-09-05T10:51:52.042Z,0.50
2022-09-05T10:54:32.290Z,0.73
2022-09-05T10:57:13.375Z,0.60
2022-09-05T11:02:24.156Z,0.60
2022-09-05T11:02:53.953Z,0.40
2022-09-05T11:05:28.895Z,0.40
2022-09-05T11:08:06.860Z,0.40
2022-09-05T11:10:38.822Z,0.43
2022-09-05T11:13:20.034Z,0.60
2022-09-05T11:16:04.012Z,0.43
2022-09-05T11:18:56.191Z,0.70
2022-09-05T11:21:30.597Z,0.80
2022-09-05T11:24:08.516Z,0.60
2022-09-05T11:26:43.240Z,0.70
2022-09-05T11:29:18.254Z,0.50
2022-09-05T11:32:42.109Z,0.40
2022-09-05T11:39:50.314Z,0.40
2022-09-05T11:40:09.704Z,0.45
2022-09-05T11:41:57.375Z,0.60
2022-09-05T11:44:35.858Z,0.60
2022-09-05T11:47:44.591Z,0.47
2022-09-05T11:50:44.720Z,0.63
2022-09-05T11:53:57.406Z,0.70
2022-09-05T11:57:11.426Z,0.60
2022-09-05T12:00:33.143Z,0.57
2022-09-05T12:04:09.948Z,0.60
2022-09-05T12:07:16.020Z,0.70
2022-09-05T12:10:03.361Z,0.40
2022-09-05T12:12:41.072Z,0.63
2022-09-05T12:15:27.098Z,0.45
2022-09-05T12:18:19.598Z,0.35
2022-09-05T12:21:04.599Z,0.73
2022-09-05T12:24:36.806Z,0.60
2022-09-05T12:27:39.154Z,0.40
2022-09-05T12:29:45.543Z,0.57
2022-09-05T12:33:32.676Z,0.70
2022-09-05T12:36:06.600Z,0.40
2022-09-05T12:40:56.524Z,0.63
2022-09-05T12:41:44.673Z,0.60
2022-09-05T12:44:41.824Z,0.70
2022-09-05T12:47:18.536Z,0.60
2022-09-05T12:50:03.412Z,0.60
2022-09-05T12:52:46.589Z,0.50
2022-09-05T12:55:26.158Z,0.60
2022-09-05T13:02:55.479Z,0.70
2022-09-05T13:03:02.513Z,0.60
2022-09-05T13:04:15.934Z,0.50
2022-09-05T13:06:40.938Z,0.40
2022-09-05T13:09:16.877Z,0.43
2022-09-05T13:14:47.371Z,0.40
2022-09-05T13:15:11.523Z,0.40
2022-09-05T13:17:51.402Z,0.40
2022-09-05T13:20:34.250Z,0.45
2022-09-05T13:23:11.393Z,0.70
2022-09-05T13:25:43.382Z,0.50
2022-09-05T13:28:15.653Z,0.40
2022-09-05T13:34:04.478Z,0.43
2022-09-05T13:38:03.244Z,0.60
2022-09-05T13:38:15.037Z,0.40
2022-09-05T13:39:29.272Z,0.50
2022-09-05T13:42:03.433Z,0.50
2022-09-05T13:44:38.160Z,0.60
2022-09-05T13:47:16.379Z,0.40
2022-09-05T13:50:17.403Z,0.40
2022-09-05T13:52:49.824Z,0.55
2022-09-05T13:55:23.864Z,0.70
2022-09-05T13:57:57.514Z,0.40
2022-09-05T14:01:14.235Z,0.45
2022-09-05T14:05:05.168Z,0.40
2022-09-05T14:07:50.300Z,0.63
2022-09-05T14:10:45.848Z,0.40
2022-09-05T14:13:19.302Z,0.55
2022-09-05T14:15:53.858Z,0.60
2022-09-05T14:18:24.798Z,0.70
2022-09-05T14:21:15.238Z,0.60
2022-09-05T14:23:53.642Z,0.77
2022-09-05T14:26:29.598Z,0.70
2022-09-05T14:29:15.105Z,0.50
2022-09-05T14:37:37.523Z,0.60
2022-09-05T14:37:48.384Z,0.80
2022-09-05T14:38:09.434Z,0.60
2022-09-05T14:41:26.724Z,0.50
2022-09-05T14:44:19.824Z,0.60
2022-09-05T14:47:08.401Z,0.68
2022-09-05T14:50:07.245Z,0.80
2022-09-05T14:52:43.782Z,0.70
2022-09-05T15:02:42.473Z,0.90
2022-09-05T15:02:45.188Z,0.60
2022-09-05T15:06:37.945Z,0.60
2022-09-05T15:12:16.708Z,0.50
2022-09-05T15:12:23.889Z,0.60
2022-09-05T15:15:01.449Z,0.50
2022-09-05T15:17:30.625Z,0.65
2022-09-05T15:20:06.187Z,0.60
2022-09-05T15:22:37.322Z,0.60
2022-09-05T15:25:17.190Z,0.60
2022-09-05T15:27:49.504Z,0.50
2022-09-05T15:30:20.510Z,0.47
2022-09-05T15:32:50.835Z,0.50
2022-09-05T15:35:35.202Z,0.50
2022-09-05T15:38:21.769Z,0.47
2022-09-05T15:41:07.672Z,0.68
2022-09-05T15:43:40.151Z,0.40
2022-09-05T15:46:08.682Z,0.63
2022-09-05T15:48:40.900Z,0.50
2022-09-05T15:51:30.984Z,0.50
2022-09-05T15:54:02.309Z,0.60
2022-09-05T15:56:30.375Z,0.57
2022-09-05T15:59:03.018Z,0.47
2022-09-05T16:01:58.153Z,0.30
2022-09-05T16:10:30.877Z,0.40
2022-09-05T16:10:33.562Z,0.65
2022-09-05T16:10:39.106Z,0.50
2022-09-05T16:12:59.749Z,0.50
2022-09-05T16:19:36.253Z,0.60
2022-09-05T16:23:17.780Z,0.50
2022-09-05T16:23:32.023Z,0.40
2022-09-05T16:24:14.425Z,0.50
2022-09-05T16:26:47.966Z,0.90
2022-09-05T16:29:26.056Z,0.50
2022-09-05T16:32:11.805Z,0.40
2022-09-05T16:34:47.704Z,0.60
2022-09-05T16:37:19.982Z,0.60
2022-09-05T16:39:52.037Z,0.52
2022-09-05T16:42:45.715Z,0.68
2022-09-05T16:45:26.147Z,0.60
2022-09-05T16:48:09.125Z,0.60
2022-09-05T16:50:48.170Z,0.43
2022-09-05T16:53:31.021Z,0.50
2022-09-05T16:56:05.238Z,0.43
2022-09-05T16:58:38.756Z,0.60
2022-09-05T17:01:20.186Z,0.50
2022-09-05T17:03:55.734Z,0.47
2022-09-05T17:06:28.037Z,0.70
2022-09-05T17:09:12.870Z,0.50
2022-09-05T17:11:51.047Z,0.57
2022-09-05T17:14:34.929Z,0.55
2022-09-05T17:18:06.000Z,0.40
2022-09-05T17:20:07.142Z,0.50
2022-09-05T17:27:57.019Z,0.63
2022-09-05T17:29:24.033Z,0.82
2022-09-05T17:29:28.326Z,0.90
2022-09-05T17:31:53.454Z,0.93
2022-09-05T17:34:54.417Z,0.63
2022-09-05T17:37:46.476Z,0.70
2022-09-05T17:40:57.277Z,0.68
2022-09-05T17:43:29.164Z,0.80
2022-09-05T17:46:13.699Z,0.60
2022-09-05T17:49:18.469Z,0.80
2022-09-05T17:52:28.298Z,0.50
2022-09-05T17:54:57.983Z,0.70
2022-09-05T17:57:40.167Z,1.50
2022-09-05T18:00:48.656Z,1.40
2022-09-05T18:04:16.880Z,1.50
2022-09-05T18:06:59.072Z,1.08
2022-09-05T18:09:59.021Z,1.45
2022-09-05T18:16:13.135Z,1.08
2022-09-05T18:19:29.054Z,1.00
2022-09-05T18:21:54.274Z,0.80
2022-09-05T18:27:39.376Z,0.85
2022-09-05T18:30:30.085Z,0.98
2022-09-05T18:33:55.029Z,0.85
2022-09-05T18:36:40.753Z,0.95
2022-09-05T18:39:50.209Z,1.25
2022-09-05T18:42:33.583Z,1.00
2022-09-05T18:45:14.668Z,1.00
2022-09-05T18:47:53.038Z,0.82
2022-09-05T18:50:32.542Z,0.82
2022-09-05T18:53:09.518Z,0.77
2022-09-05T18:56:13.087Z,0.85
2022-09-05T18:58:35.245Z,0.80
2022-09-05T19:01:27.653Z,0.88
2022-09-05T19:04:03.957Z,0.80
2022-09-05T19:06:37.934Z,0.88
2022-09-05T19:09:09.937Z,1.00
2022-09-05T19:11:53.150Z,0.90
2022-09-05T19:14:34.926Z,0.90
2022-09-05T19:17:08.819Z,1.10
2022-09-05T19:20:32.486Z,0.80
2022-09-05T19:23:10.471Z,0.90
2022-09-05T19:25:46.385Z,1.20
2022-09-05T19:33:50.494Z,0.80
2022-09-05T19:37:08.702Z,1.10
2022-09-05T19:37:10.874Z,0.95
2022-09-05T19:37:29.223Z,1.05
2022-09-05T19:42:49.515Z,1.00
2022-09-05T19:47:29.128Z,1.00
2022-09-05T19:47:36.823Z,0.70
2022-09-05T19:48:26.981Z,1.00
2022-09-05T19:50:56.619Z,1.25
2022-09-05T19:53:28.106Z,1.08
2022-09-05T19:55:57.033Z,1.13
2022-09-05T19:58:27.796Z,1.20
2022-09-05T20:01:05.810Z,1.80
2022-09-05T20:03:39.270Z,2.38
2022-09-05T20:06:26.793Z,3.17
2022-09-05T20:09:10.978Z,1.73
2022-09-05T20:11:45.556Z,1.40
2022-09-05T20:14:22.214Z,1.58
2022-09-05T20:16:51.509Z,1.27
2022-09-05T20:19:29.547Z,2.80
2022-09-05T20:22:12.745Z,2.10
2022-09-05T20:24:51.251Z,1.58
2022-09-05T20:27:27.153Z,2.00
2022-09-05T20:29:58.212Z,3.10
2022-09-05T20:32:39.866Z,2.53
2022-09-05T20:37:51.685Z,1.88
2022-09-05T20:43:10.163Z,1.35
2022-09-05T20:43:24.000Z,1.40
2022-09-05T20:43:58.147Z,1.10
2022-09-05T20:50:45.636Z,1.10
2022-09-05T20:54:14.020Z,1.13
2022-09-05T20:54:23.202Z,1.05
2022-09-05T20:55:37.990Z,1.20
2022-09-05T20:57:51.072Z,1.20
2022-09-05T21:00:23.012Z,1.02
2022-09-05T21:02:54.671Z,1.20
2022-09-05T21:05:30.190Z,0.82
2022-09-05T21:08:25.986Z,0.93
2022-09-05T21:10:56.545Z,1.10
2022-09-05T21:13:28.214Z,0.90
2022-09-05T21:15:57.199Z,1.02
2022-09-05T21:18:33.232Z,1.05
2022-09-05T21:21:14.587Z,0.90
2022-09-05T21:24:16.291Z,0.98
2022-09-05T21:26:50.523Z,0.77
2022-09-05T21:29:27.552Z,1.08
2022-09-05T21:32:02.380Z,1.45
2022-09-05T21:34:38.419Z,0.90
2022-09-05T21:37:15.288Z,0.95
2022-09-05T21:39:59.244Z,1.05
2022-09-05T21:45:18.106Z,1.42
2022-09-05T21:47:49.220Z,1.02
2022-09-05T21:48:15.260Z,1.08
2022-09-05T21:50:46.861Z,1.50
2022-09-05T21:56:46.662Z,0.85
2022-09-05T21:59:18.250Z,1.02
2022-09-05T21:59:28.694Z,1.02
2022-09-05T22:01:58.826Z,1.00
2022-09-05T22:04:27.050Z,1.20
2022-09-05T22:06:57.628Z,1.10
2022-09-05T22:09:25.670Z,1.42
2022-09-05T22:11:53.817Z,1.20
2022-09-05T22:14:24.364Z,1.20
2022-09-05T22:16:56.278Z,1.27
2022-09-05T22:19:37.347Z,1.13
2022-09-05T22:22:17.643Z,1.25
2022-09-05T22:24:53.309Z,1.05
2022-09-05T22:27:23.875Z,1.40
2022-09-05T22:29:52.426Z,1.10
2022-09-05T22:32:30.957Z,1.25
2022-09-05T22:35:26.931Z,0.90
2022-09-05T22:38:07.050Z,1.30
2022-09-05T22:40:37.968Z,1.38
2022-09-05T22:43:07.591Z,1.25
2022-09-05T22:45:38.247Z,1.27
2022-09-05T22:48:11.719Z,1.35
2022-09-05T22:50:42.289Z,1.00
2022-09-05T22:53:11.042Z,1.10
2022-09-05T22:55:41.388Z,1.33
2022-09-05T22:58:11.760Z,1.45
2022-09-05T23:00:41.339Z,1.50
2022-09-05T23:03:09.387Z,1.13
2022-09-05T23:05:37.400Z,1.23
2022-09-05T23:08:07.420Z,1.20
2022-09-05T23:10:36.520Z,1.38
2022-09-05T23:13:05.850Z,1.30
2022-09-05T23:15:34.030Z,1.45
2022-09-05T23:18:02.877Z,1.30
2022-09-05T23:20:33.109Z,1.40
2022-09-05T23:23:04.600Z,1.70
2022-09-05T23:25:34.401Z,1.52
2022-09-05T23:28:06.278Z,1.20
2022-09-05T23:30:34.312Z,1.30
2022-09-05T23:33:02.285Z,1.27
2022-09-05T23:35:30.299Z,1.20
2022-09-05T23:37:58.276Z,1.20
2022-09-05T23:40:26.954Z,1.30
2022-09-05T23:42:58.108Z,1.20
2022-09-05T23:45:27.128Z,1.65
2022-09-05T23:47:55.695Z,1.15
2022-09-05T23:50:23.744Z,1.25
2022-09-05T23:52:51.776Z,1.15
2022-09-05T23:55:22.474Z,0.90
2022-09-05T23:57:50.600Z,1.30
